This is the latest recevied weather packets stored in our database for station/object KD2ZLA. If no packets are shown the sender has not sent any weather packets the latest 10 day(s).
| Time | Temp. | Humidity | Pressure | Rain* | Wind** | Luminosity | Snow |
|---|---|---|---|---|---|---|---|
| 1777648073 | 8.89° C | 45% | 1012.6 hPa | 0 mm | - | 762 W/m² | - |
| 1777647769 | 8.89° C | 49% | 1012.4 hPa | 0 mm | - | 754 W/m² | - |
| 1777647466 | 8.33° C | 46% | 1012.7 hPa | 0 mm | - | 742 W/m² | - |
| 1777646252 | 8.33° C | 49% | 1012.5 hPa | 0 mm | - | 703 W/m² | - |
| 1777645950 | 7.78° C | 49% | 1012.6 hPa | 0 mm | - | 690 W/m² | - |
| 1777645646 | 8.33° C | 48% | 1012.7 hPa | 0 mm | - | 684 W/m² | - |
| 1777645342 | 8.33° C | 48% | 1012.7 hPa | 0 mm | - | 672 W/m² | - |
| 1777645038 | 7.78° C | 50% | 1012.7 hPa | 0 mm | - | 661 W/m² | - |
| 1777644735 | 7.78° C | 54% | 1012.7 hPa | 0 mm | - | 649 W/m² | - |
| 1777644432 | 7.78° C | 52% | 1012.7 hPa | 0 mm | - | 636 W/m² | - |
| 1777644129 | 7.22° C | 54% | 1012.7 hPa | 0 mm | - | 625 W/m² | - |
| 1777643825 | 7.22° C | 56% | 1012.7 hPa | 0 mm | - | 612 W/m² | - |
| 1777643522 | 7.22° C | 55% | 1012.7 hPa | 0 mm | - | 597 W/m² | - |
| 1777643219 | 6.67° C | 53% | 1012.8 hPa | 0 mm | - | 579 W/m² | - |
| 1777642915 | 6.67° C | 54% | 1012.9 hPa | 0 mm | - | 573 W/m² | - |
| 1777642612 | 6.67° C | 54% | 1012.8 hPa | 0 mm | - | 558 W/m² | - |
| 1777642309 | 6.67° C | 56% | 1012.9 hPa | 0 mm | - | 541 W/m² | - |
| 1777642006 | 6.67° C | 59% | 1012.9 hPa | 0 mm | - | 526 W/m² | - |
| 1777641702 | 6.67° C | 57% | 1012.9 hPa | 0 mm | - | 510 W/m² | - |
| 1777641397 | 6.67° C | 56% | 1012.9 hPa | 0 mm | - | 493 W/m² | - |
| 1777641092 | 6.11° C | 60% | 1012.9 hPa | 0.51 mm | - | 478 W/m² | - |
| 1777640789 | 6.11° C | 55% | 1013 hPa | 0.51 mm | - | 461 W/m² | - |
| 1777640486 | 6.11° C | 58% | 1012.9 hPa | 0 mm | - | 444 W/m² | - |
| 1777640183 | 6.11° C | 62% | 1012.8 hPa | 0 mm | - | 428 W/m² | - |
| 1777639577 | 5.56° C | 64% | 1012.9 hPa | 0 mm | - | 382 W/m² | - |
* Rain latest hour (hover to see other rain measurements)
** Current wind speed in m/s (hover to see current wind gust speed)